createdAt,value
2022-11-14T00:00:18.436Z,1.02
2022-11-14T00:03:22.659Z,1.10
2022-11-14T00:06:26.941Z,1.30
2022-11-14T00:09:31.182Z,1.10
2022-11-14T00:12:35.530Z,1.95
2022-11-14T00:15:39.539Z,1.70
2022-11-14T00:18:43.771Z,1.00
2022-11-14T00:21:48.166Z,1.08
2022-11-14T00:24:52.479Z,1.75
2022-11-14T00:27:58.929Z,1.23
2022-11-14T00:31:03.260Z,1.15
2022-11-14T00:34:07.865Z,0.90
2022-11-14T00:37:12.341Z,0.80
2022-11-14T00:40:17.001Z,1.00
2022-11-14T00:43:21.656Z,1.38
2022-11-14T00:46:25.941Z,1.13
2022-11-14T00:49:30.280Z,0.80
2022-11-14T00:52:34.743Z,0.98
2022-11-14T00:55:39.806Z,0.80
2022-11-14T00:58:44.138Z,1.05
2022-11-14T01:01:48.311Z,1.25
2022-11-14T01:04:53.160Z,0.90
2022-11-14T01:07:57.542Z,0.70
2022-11-14T01:11:01.877Z,0.50
2022-11-14T01:14:07.524Z,0.70
2022-11-14T01:17:11.784Z,0.52
2022-11-14T01:20:17.353Z,0.95
2022-11-14T01:23:21.409Z,0.50
2022-11-14T01:26:25.576Z,0.80
2022-11-14T01:29:30.208Z,0.77
2022-11-14T01:32:34.749Z,0.82
2022-11-14T01:35:39.358Z,0.77
2022-11-14T01:38:43.806Z,0.90
2022-11-14T01:41:47.864Z,0.65
2022-11-14T01:44:53.403Z,1.55
2022-11-14T01:47:57.820Z,0.70
2022-11-14T01:51:15.479Z,0.98
2022-11-14T01:54:36.385Z,0.90
2022-11-14T01:57:46.160Z,1.10
2022-11-14T02:00:50.565Z,0.90
2022-11-14T02:03:56.195Z,0.60
2022-11-14T02:07:04.059Z,0.95
2022-11-14T02:10:18.699Z,0.88
2022-11-14T02:13:22.850Z,0.98
2022-11-14T02:16:28.053Z,0.85
2022-11-14T02:19:51.905Z,0.60
2022-11-14T02:22:56.537Z,0.55
2022-11-14T02:26:01.368Z,0.70
2022-11-14T02:29:07.454Z,0.80
2022-11-14T02:32:11.656Z,0.50
2022-11-14T02:35:15.844Z,0.60
2022-11-14T02:38:20.232Z,0.77
2022-11-14T02:41:24.558Z,0.75
2022-11-14T02:44:28.701Z,0.77
2022-11-14T02:47:32.615Z,0.75
2022-11-14T02:50:36.755Z,0.68
2022-11-14T02:53:41.078Z,0.60
2022-11-14T02:56:45.450Z,0.82
2022-11-14T02:59:49.722Z,0.70
2022-11-14T03:02:54.403Z,0.80
2022-11-14T03:06:03.124Z,0.75
2022-11-14T03:09:07.439Z,1.00
2022-11-14T03:12:11.934Z,0.60
2022-11-14T03:15:16.597Z,0.70
2022-11-14T03:18:20.799Z,0.57
2022-11-14T03:21:25.259Z,0.68
2022-11-14T03:24:29.534Z,0.85
2022-11-14T03:27:33.956Z,0.82
2022-11-14T03:30:38.392Z,0.80
2022-11-14T03:33:42.977Z,0.82
2022-11-14T03:36:47.163Z,1.23
2022-11-14T03:39:51.346Z,1.20
2022-11-14T03:42:57.582Z,0.80
2022-11-14T03:46:02.966Z,0.95
2022-11-14T03:49:07.636Z,0.73
2022-11-14T03:52:12.647Z,0.90
2022-11-14T03:55:16.784Z,1.00
2022-11-14T03:58:20.986Z,1.13
2022-11-14T04:01:24.941Z,0.77
2022-11-14T04:04:29.173Z,0.60
2022-11-14T04:07:33.462Z,0.98
2022-11-14T04:10:37.665Z,0.88
2022-11-14T04:13:41.829Z,1.13
2022-11-14T04:16:46.024Z,1.00
2022-11-14T04:19:50.558Z,0.98
2022-11-14T04:22:54.800Z,0.80
2022-11-14T04:25:59.093Z,1.15
2022-11-14T04:29:03.107Z,1.50
2022-11-14T04:32:07.458Z,1.40
2022-11-14T04:35:11.872Z,1.23
2022-11-14T04:38:16.242Z,1.48
2022-11-14T04:41:21.545Z,2.00
2022-11-14T04:44:25.489Z,1.88
2022-11-14T04:47:29.739Z,2.05
2022-11-14T04:50:33.875Z,2.10
2022-11-14T04:53:38.144Z,2.55
2022-11-14T04:56:42.386Z,2.45
2022-11-14T04:59:46.635Z,3.03
2022-11-14T05:02:51.296Z,2.35
2022-11-14T05:06:00.780Z,3.08
2022-11-14T05:09:05.084Z,3.85
2022-11-14T05:12:09.441Z,3.47
2022-11-14T05:15:13.713Z,3.47
2022-11-14T05:18:18.052Z,4.00
2022-11-14T05:21:22.436Z,4.57
2022-11-14T05:24:28.661Z,4.78
2022-11-14T05:27:32.637Z,4.47
2022-11-14T05:30:36.909Z,5.03
2022-11-14T05:33:41.254Z,4.70
2022-11-14T05:36:45.887Z,5.18
2022-11-14T05:39:50.286Z,4.25
2022-11-14T05:42:57.898Z,4.90
2022-11-14T05:46:09.475Z,4.95
2022-11-14T05:49:17.881Z,3.88
2022-11-14T05:52:24.730Z,4.45
2022-11-14T05:55:29.192Z,3.33
2022-11-14T05:58:35.368Z,4.10
2022-11-14T06:01:39.933Z,3.63
2022-11-14T06:04:44.145Z,3.92
2022-11-14T06:07:48.505Z,3.10
2022-11-14T06:10:52.746Z,2.72
2022-11-14T06:13:56.995Z,3.40
2022-11-14T06:17:01.197Z,2.67
2022-11-14T06:20:06.406Z,2.40
2022-11-14T06:23:10.730Z,2.30
2022-11-14T06:26:22.696Z,2.35
2022-11-14T06:29:30.197Z,2.72
2022-11-14T06:32:38.301Z,2.63
2022-11-14T06:35:42.552Z,2.70
2022-11-14T06:38:46.750Z,2.97
2022-11-14T06:41:51.029Z,2.83
2022-11-14T06:44:55.462Z,3.35
2022-11-14T06:48:00.239Z,2.95
2022-11-14T06:51:06.544Z,3.70
2022-11-14T06:54:14.272Z,2.55
2022-11-14T06:57:19.244Z,3.05
2022-11-14T07:00:23.356Z,2.08
2022-11-14T07:03:27.557Z,2.92
2022-11-14T07:06:31.750Z,2.30
2022-11-14T07:09:35.823Z,3.22
2022-11-14T07:12:40.236Z,2.65
2022-11-14T07:15:54.056Z,2.75
2022-11-14T07:18:59.573Z,2.10
2022-11-14T07:22:04.340Z,2.47
2022-11-14T07:25:09.434Z,2.22
2022-11-14T07:28:13.612Z,2.50
2022-11-14T07:31:20.082Z,2.63
2022-11-14T07:34:24.501Z,2.60
2022-11-14T07:37:28.788Z,2.33
2022-11-14T07:40:33.219Z,1.88
2022-11-14T07:43:37.310Z,2.17
2022-11-14T07:46:41.554Z,2.30
2022-11-14T07:49:45.744Z,1.92
2022-11-14T07:52:54.433Z,2.15
2022-11-14T07:56:03.787Z,1.88
2022-11-14T07:59:07.807Z,1.42
2022-11-14T08:02:14.431Z,1.60
2022-11-14T08:05:18.670Z,1.30
2022-11-14T08:08:23.289Z,1.75
2022-11-14T08:11:46.072Z,1.33
2022-11-14T08:14:50.495Z,1.70
2022-11-14T08:18:01.912Z,1.25
2022-11-14T08:21:06.359Z,1.60
2022-11-14T08:24:11.033Z,1.60
2022-11-14T08:27:15.620Z,1.65
2022-11-14T08:30:20.151Z,1.77
2022-11-14T08:33:24.915Z,1.55
2022-11-14T08:36:29.129Z,1.33
2022-11-14T08:39:33.312Z,1.40
2022-11-14T08:42:37.593Z,1.60
2022-11-14T08:45:41.997Z,2.40
2022-11-14T08:48:46.063Z,2.00
2022-11-14T08:51:52.658Z,2.50
2022-11-14T08:54:56.868Z,1.60
2022-11-14T08:58:01.238Z,2.00
2022-11-14T09:01:07.535Z,1.77
2022-11-14T09:04:12.029Z,1.27
2022-11-14T09:07:16.255Z,1.58
2022-11-14T09:10:20.778Z,1.35
2022-11-14T09:13:24.888Z,1.50
2022-11-14T09:16:29.185Z,1.67
2022-11-14T09:19:33.401Z,1.45
2022-11-14T09:22:37.568Z,1.83
2022-11-14T09:25:41.864Z,1.55
2022-11-14T09:28:46.346Z,1.40
2022-11-14T09:31:52.339Z,1.88
2022-11-14T09:34:56.485Z,1.77
2022-11-14T09:38:03.071Z,1.30
2022-11-14T09:41:26.910Z,1.20
2022-11-14T09:44:45.993Z,1.40
2022-11-14T09:47:56.150Z,1.55
2022-11-14T09:51:00.709Z,1.88
2022-11-14T09:54:21.776Z,1.83
2022-11-14T09:57:27.387Z,1.85
2022-11-14T10:01:07.964Z,1.25
2022-11-14T10:04:13.775Z,1.92
2022-11-14T10:07:27.497Z,1.33
2022-11-14T10:10:55.560Z,0.95
2022-11-14T10:14:18.258Z,0.88
2022-11-14T10:17:44.228Z,0.80
2022-11-14T10:20:54.279Z,0.90
2022-11-14T10:24:03.792Z,0.95
2022-11-14T10:27:17.315Z,0.75
2022-11-14T10:30:21.897Z,1.23
2022-11-14T10:33:56.173Z,0.88
2022-11-14T10:37:18.642Z,0.90
2022-11-14T10:40:58.674Z,0.50
2022-11-14T10:44:03.458Z,0.57
2022-11-14T10:47:12.802Z,0.55
2022-11-14T10:50:25.181Z,0.70
2022-11-14T10:53:36.158Z,0.90
2022-11-14T10:56:55.036Z,1.27
2022-11-14T10:59:59.259Z,0.70
2022-11-14T11:03:04.009Z,0.70
2022-11-14T11:06:25.548Z,0.75
2022-11-14T11:09:48.053Z,0.90
2022-11-14T11:12:54.357Z,0.50
2022-11-14T11:16:01.510Z,0.50
2022-11-14T11:19:23.851Z,1.17
2022-11-14T11:25:37.027Z,0.60
2022-11-14T11:28:41.398Z,1.00
2022-11-14T11:31:54.909Z,0.60
2022-11-14T11:35:02.612Z,0.60
2022-11-14T11:38:13.072Z,0.60
2022-11-14T11:44:59.358Z,0.57
2022-11-14T11:48:20.192Z,2.00
2022-11-14T11:51:27.122Z,0.70
2022-11-14T11:54:46.499Z,0.50
2022-11-14T11:58:01.853Z,0.60
2022-11-14T12:01:05.912Z,0.47
2022-11-14T12:04:12.518Z,0.50
2022-11-14T12:07:24.441Z,0.80
2022-11-14T12:10:33.714Z,0.47
2022-11-14T12:14:13.398Z,0.60
2022-11-14T12:17:48.241Z,0.63
2022-11-14T12:21:12.745Z,0.30
2022-11-14T12:24:51.109Z,0.40
2022-11-14T12:28:13.892Z,0.50
2022-11-14T12:34:45.595Z,0.38
2022-11-14T12:37:55.841Z,0.50
2022-11-14T12:41:02.373Z,0.40
2022-11-14T12:44:28.070Z,0.20
2022-11-14T12:47:32.574Z,0.65
2022-11-14T12:50:43.583Z,0.40
2022-11-14T12:53:48.180Z,0.30
2022-11-14T12:57:00.805Z,0.38
2022-11-14T13:00:08.423Z,0.30
2022-11-14T13:03:37.472Z,0.38
2022-11-14T13:06:41.612Z,0.30
2022-11-14T13:10:04.585Z,0.35
2022-11-14T13:13:30.680Z,0.30
2022-11-14T13:16:53.128Z,0.10
2022-11-14T13:20:16.113Z,0.15
2022-11-14T13:26:30.772Z,0.10
2022-11-14T13:29:41.074Z,0.30
2022-11-14T13:32:45.133Z,0.28
2022-11-14T13:35:53.127Z,0.35
2022-11-14T13:39:09.878Z,0.05
2022-11-14T13:42:55.060Z,0.25
2022-11-14T13:46:24.090Z,0.20
2022-11-14T13:49:32.784Z,0.40
2022-11-14T13:52:44.723Z,0.10
2022-11-14T13:56:08.520Z,0.30
2022-11-14T13:59:35.655Z,0.35
2022-11-14T14:03:01.862Z,0.32
2022-11-14T14:06:09.430Z,0.38
2022-11-14T14:09:38.855Z,0.45
2022-11-14T14:12:43.531Z,0.63
2022-11-14T14:15:56.913Z,0.20
2022-11-14T14:19:25.674Z,0.25
2022-11-14T14:22:51.756Z,0.20
2022-11-14T14:26:25.385Z,0.28
2022-11-14T14:30:06.060Z,0.20
2022-11-14T14:33:13.454Z,0.25
2022-11-14T14:36:25.989Z,0.30
2022-11-14T14:39:30.479Z,0.30
2022-11-14T14:42:40.048Z,0.28
2022-11-14T14:45:52.141Z,0.45
2022-11-14T14:48:58.109Z,0.20
2022-11-14T14:52:02.533Z,0.28
2022-11-14T14:55:18.534Z,0.40
2022-11-14T14:58:27.489Z,0.68
2022-11-14T15:01:34.857Z,0.70
2022-11-14T15:04:41.127Z,0.60
2022-11-14T15:07:46.535Z,0.45
2022-11-14T15:10:51.669Z,1.00
2022-11-14T15:13:59.296Z,0.55
2022-11-14T15:17:04.693Z,0.35
2022-11-14T15:20:22.987Z,0.40
2022-11-14T15:23:27.525Z,0.43
2022-11-14T15:26:31.893Z,1.05
2022-11-14T15:29:45.832Z,0.60
2022-11-14T15:32:51.952Z,0.40
2022-11-14T15:36:06.863Z,0.60
2022-11-14T15:39:38.255Z,1.20
2022-11-14T15:42:42.727Z,0.73
2022-11-14T15:45:47.484Z,1.10
2022-11-14T15:48:52.191Z,0.85
2022-11-14T15:52:00.640Z,0.80
2022-11-14T15:55:12.844Z,0.90
2022-11-14T15:58:32.992Z,0.77
2022-11-14T16:01:37.395Z,1.33
2022-11-14T16:04:47.269Z,0.60
2022-11-14T16:07:52.511Z,1.15
2022-11-14T16:10:57.018Z,0.90
2022-11-14T16:14:01.089Z,1.20
2022-11-14T16:17:05.825Z,1.10
2022-11-14T16:20:31.434Z,1.15
2022-11-14T16:23:36.788Z,0.75
2022-11-14T16:26:41.278Z,1.27
2022-11-14T16:29:45.956Z,1.05
2022-11-14T16:32:51.907Z,0.80
2022-11-14T16:35:56.093Z,1.20
2022-11-14T16:39:02.643Z,0.70
2022-11-14T16:42:08.450Z,1.00
2022-11-14T16:45:13.218Z,2.13
2022-11-14T16:48:17.423Z,1.20
2022-11-14T16:51:47.014Z,1.02
2022-11-14T16:54:46.317Z,3.40
2022-11-14T16:57:50.881Z,2.92
2022-11-14T17:00:55.622Z,1.85
2022-11-14T17:04:02.826Z,5.30
2022-11-14T17:07:06.896Z,3.67
2022-11-14T17:10:11.005Z,1.55
2022-11-14T17:13:24.058Z,4.18
2022-11-14T17:16:28.702Z,2.55
2022-11-14T17:19:32.925Z,2.75
2022-11-14T17:22:37.586Z,3.53
2022-11-14T17:25:42.127Z,6.93
2022-11-14T17:28:46.640Z,9.65
2022-11-14T17:31:50.940Z,6.47
2022-11-14T17:34:55.125Z,5.53
2022-11-14T17:38:00.405Z,2.72
2022-11-14T17:41:06.101Z,2.63
2022-11-14T17:44:10.403Z,2.47
2022-11-14T17:47:14.825Z,2.10
2022-11-14T17:50:19.208Z,2.90
2022-11-14T17:53:23.534Z,1.95
2022-11-14T17:56:28.078Z,3.28
2022-11-14T17:59:33.610Z,3.25
2022-11-14T18:02:37.592Z,2.92
2022-11-14T18:05:41.916Z,2.15
2022-11-14T18:08:46.906Z,2.35
2022-11-14T18:11:51.480Z,2.05
2022-11-14T18:14:55.886Z,2.40
2022-11-14T18:18:00.598Z,2.03
2022-11-14T18:21:16.608Z,3.42
2022-11-14T18:24:21.813Z,2.92
2022-11-14T18:27:26.238Z,5.47
2022-11-14T18:30:46.026Z,3.22
2022-11-14T18:33:51.010Z,4.93
2022-11-14T18:36:57.074Z,2.50
2022-11-14T18:40:01.248Z,2.10
2022-11-14T18:43:05.558Z,2.05
2022-11-14T18:46:18.777Z,2.50
2022-11-14T18:49:23.290Z,2.50
2022-11-14T18:52:27.504Z,2.08
2022-11-14T18:55:31.646Z,2.75
2022-11-14T18:58:39.668Z,2.47
2022-11-14T19:01:44.428Z,3.15
2022-11-14T19:04:48.764Z,2.35
2022-11-14T19:07:52.889Z,2.10
2022-11-14T19:11:02.041Z,2.20
2022-11-14T19:14:06.673Z,2.03
2022-11-14T19:17:11.054Z,1.85
2022-11-14T19:20:15.411Z,1.75
2022-11-14T19:23:19.965Z,3.10
2022-11-14T19:26:24.273Z,1.95
2022-11-14T19:29:28.729Z,1.83
2022-11-14T19:32:34.448Z,2.03
2022-11-14T19:35:39.455Z,1.75
2022-11-14T19:38:44.269Z,1.35
2022-11-14T19:41:48.790Z,1.77
2022-11-14T19:44:52.622Z,2.72
2022-11-14T19:47:57.112Z,2.60
2022-11-14T19:51:13.055Z,2.42
2022-11-14T19:54:18.017Z,2.47
2022-11-14T19:57:22.124Z,1.50
2022-11-14T20:00:29.368Z,1.95
2022-11-14T20:03:34.338Z,2.47
2022-11-14T20:06:39.609Z,1.85
2022-11-14T20:09:44.004Z,2.65
2022-11-14T20:12:48.178Z,2.35
2022-11-14T20:15:52.611Z,2.78
2022-11-14T20:19:00.092Z,2.13
2022-11-14T20:22:06.609Z,1.65
2022-11-14T20:25:15.712Z,2.10
2022-11-14T20:28:20.217Z,2.08
2022-11-14T20:31:28.837Z,2.38
2022-11-14T20:34:33.188Z,2.45
2022-11-14T20:37:37.365Z,2.33
2022-11-14T20:40:41.769Z,2.53
2022-11-14T20:43:45.966Z,2.25
2022-11-14T20:46:50.227Z,2.55
2022-11-14T20:49:54.495Z,2.40
2022-11-14T20:52:58.704Z,2.15
2022-11-14T20:56:04.194Z,2.47
2022-11-14T20:59:08.747Z,1.95
2022-11-14T21:02:13.210Z,1.80
2022-11-14T21:05:17.491Z,2.55
2022-11-14T21:08:22.275Z,2.33
2022-11-14T21:11:26.789Z,2.20
2022-11-14T21:14:30.986Z,1.40
2022-11-14T21:17:35.137Z,2.17
2022-11-14T21:20:39.550Z,2.42
2022-11-14T21:23:47.726Z,2.70
2022-11-14T21:26:52.134Z,2.60
2022-11-14T21:29:56.776Z,2.08
2022-11-14T21:33:00.881Z,2.05
2022-11-14T21:36:22.866Z,2.22
2022-11-14T21:39:30.773Z,2.17
2022-11-14T21:42:35.033Z,2.55
2022-11-14T21:45:39.154Z,2.40
2022-11-14T21:48:47.612Z,1.90
2022-11-14T21:51:51.808Z,3.38
2022-11-14T21:54:56.319Z,2.33
2022-11-14T21:58:00.292Z,2.22
2022-11-14T22:01:07.208Z,2.00
2022-11-14T22:04:14.596Z,1.70
2022-11-14T22:07:19.008Z,2.03
2022-11-14T22:10:23.254Z,1.15
2022-11-14T22:13:29.976Z,1.40
2022-11-14T22:16:34.564Z,1.50
2022-11-14T22:19:38.969Z,1.23
2022-11-14T22:22:43.099Z,1.17
2022-11-14T22:25:58.034Z,1.60
2022-11-14T22:29:02.395Z,1.33
2022-11-14T22:32:06.747Z,1.60
2022-11-14T22:35:10.897Z,1.45
2022-11-14T22:38:15.022Z,1.35
2022-11-14T22:41:31.950Z,1.17
2022-11-14T22:44:37.532Z,1.33
2022-11-14T22:47:41.777Z,1.38
2022-11-14T22:50:46.280Z,1.27
2022-11-14T22:53:53.082Z,1.45
2022-11-14T22:56:57.752Z,1.30
2022-11-14T23:00:02.178Z,1.20
2022-11-14T23:03:06.440Z,0.90
2022-11-14T23:06:13.141Z,2.25
2022-11-14T23:09:17.323Z,1.58
2022-11-14T23:12:21.513Z,2.17
2022-11-14T23:15:27.050Z,1.30
2022-11-14T23:18:31.117Z,1.48
2022-11-14T23:21:36.688Z,1.15
2022-11-14T23:24:41.067Z,0.90
2022-11-14T23:27:45.270Z,1.73
2022-11-14T23:30:49.660Z,1.45
2022-11-14T23:33:55.816Z,0.93
2022-11-14T23:37:00.438Z,0.88
2022-11-14T23:40:05.270Z,1.48
2022-11-14T23:43:09.504Z,1.83
2022-11-14T23:46:14.332Z,1.48
2022-11-14T23:49:19.061Z,1.73
2022-11-14T23:52:23.516Z,1.02
2022-11-14T23:55:28.042Z,0.85
2022-11-14T23:58:32.357Z,0.75
